createdAt,value
2024-01-20T00:00:03.516Z,99.99
2024-01-20T00:01:03.632Z,99.99
2024-01-20T00:02:03.583Z,99.99
2024-01-20T00:03:03.519Z,99.99
2024-01-20T00:04:03.523Z,99.99
2024-01-20T00:05:03.514Z,99.99
2024-01-20T00:06:03.528Z,99.99
2024-01-20T00:07:03.509Z,99.99
2024-01-20T00:08:03.456Z,99.99
2024-01-20T00:09:04.360Z,99.99
2024-01-20T00:10:04.379Z,99.99
2024-01-20T00:11:03.446Z,99.99
2024-01-20T00:12:03.383Z,99.99
2024-01-20T00:13:03.413Z,99.99
2024-01-20T00:14:03.481Z,99.99
2024-01-20T00:15:03.518Z,99.99
2024-01-20T00:16:03.344Z,99.99
2024-01-20T00:17:09.083Z,99.99
2024-01-20T00:18:05.450Z,99.99
2024-01-20T00:19:03.389Z,99.99
2024-01-20T00:20:03.481Z,99.99
2024-01-20T00:21:03.285Z,99.99
2024-01-20T00:22:03.257Z,99.99
2024-01-20T00:23:03.295Z,99.99
2024-01-20T00:24:03.298Z,99.99
2024-01-20T00:25:03.251Z,99.99
2024-01-20T00:26:03.297Z,99.99
2024-01-20T00:27:03.238Z,99.99
2024-01-20T00:28:03.228Z,99.99
2024-01-20T00:29:03.252Z,99.99
2024-01-20T00:30:03.282Z,99.99
2024-01-20T00:31:03.167Z,99.99
2024-01-20T00:32:03.258Z,99.99
2024-01-20T00:33:03.389Z,99.99
2024-01-20T00:34:03.989Z,99.99
2024-01-20T00:35:07.293Z,99.99
2024-01-20T00:36:04.213Z,99.99
2024-01-20T00:37:03.140Z,99.99
2024-01-20T00:38:04.106Z,99.99
2024-01-20T00:39:03.107Z,99.99
2024-01-20T00:40:03.084Z,99.99
2024-01-20T00:41:03.113Z,99.99
2024-01-20T00:42:03.104Z,99.99
2024-01-20T00:43:03.178Z,99.99
2024-01-20T00:44:03.076Z,99.99
2024-01-20T00:45:03.032Z,99.99
2024-01-20T00:46:03.026Z,99.99
2024-01-20T00:47:02.994Z,99.99
2024-01-20T00:48:03.042Z,99.99
2024-01-20T00:49:02.987Z,99.99
2024-01-20T00:50:02.996Z,99.99
2024-01-20T00:51:02.966Z,99.99
2024-01-20T00:52:03.942Z,99.99
2024-01-20T00:53:02.997Z,99.99
2024-01-20T00:54:02.978Z,99.99
2024-01-20T00:55:02.915Z,99.99
2024-01-20T00:56:02.961Z,99.99
2024-01-20T00:57:02.903Z,99.99
2024-01-20T00:58:02.909Z,99.99
2024-01-20T00:59:02.922Z,99.99
2024-01-20T01:00:02.937Z,99.99
2024-01-20T01:01:02.867Z,99.99
2024-01-20T01:02:02.921Z,99.99
2024-01-20T01:03:02.868Z,99.99
2024-01-20T01:04:02.836Z,99.99
2024-01-20T01:05:03.548Z,99.99
2024-01-20T01:06:03.925Z,99.99
2024-01-20T01:07:02.787Z,99.99
2024-01-20T01:08:02.873Z,99.99
2024-01-20T01:09:02.783Z,99.99
2024-01-20T01:10:02.767Z,99.99
2024-01-20T01:11:02.807Z,99.99
2024-01-20T01:12:02.785Z,99.99
2024-01-20T01:13:02.749Z,99.99
2024-01-20T01:14:02.785Z,99.99
2024-01-20T01:15:02.787Z,99.99
2024-01-20T01:16:02.705Z,99.99
2024-01-20T01:17:02.791Z,99.99
2024-01-20T01:18:02.770Z,99.99
2024-01-20T01:19:02.683Z,99.99
2024-01-20T01:20:02.818Z,99.99
2024-01-20T01:21:02.664Z,99.99
2024-01-20T01:22:02.639Z,99.99
2024-01-20T01:23:02.674Z,99.99
2024-01-20T01:24:02.661Z,99.99
2024-01-20T01:25:02.614Z,99.99
2024-01-20T01:26:02.713Z,99.99
2024-01-20T01:27:02.634Z,99.99
2024-01-20T01:28:02.563Z,99.99
2024-01-20T01:29:02.593Z,99.99
2024-01-20T01:30:02.708Z,99.99
2024-01-20T01:31:02.557Z,99.99
2024-01-20T01:32:02.591Z,99.99
2024-01-20T01:33:02.582Z,99.99
2024-01-20T01:34:02.570Z,99.99
2024-01-20T01:35:02.649Z,99.99
2024-01-20T01:36:02.518Z,99.99
2024-01-20T01:37:02.486Z,99.99
2024-01-20T01:38:02.578Z,99.99
2024-01-20T01:39:02.476Z,99.99
2024-01-20T01:40:02.437Z,99.99
2024-01-20T01:41:02.506Z,99.99
2024-01-20T01:42:02.458Z,99.99
2024-01-20T01:43:02.543Z,99.99
2024-01-20T01:44:02.550Z,99.99
2024-01-20T01:45:02.393Z,99.99
2024-01-20T01:46:02.388Z,99.99
2024-01-20T01:47:02.425Z,99.99
2024-01-20T01:48:02.497Z,99.99
2024-01-20T01:49:02.372Z,99.99
2024-01-20T01:50:02.392Z,99.99
2024-01-20T01:51:02.344Z,99.99
2024-01-20T01:52:02.305Z,99.99
2024-01-20T01:53:02.324Z,99.99
2024-01-20T01:54:02.360Z,99.99
2024-01-20T01:55:02.294Z,99.99
2024-01-20T01:56:02.287Z,99.99
2024-01-20T01:57:02.304Z,99.99
2024-01-20T01:58:02.290Z,99.99
2024-01-20T01:59:02.247Z,99.99
2024-01-20T02:00:02.312Z,99.99
2024-01-20T02:01:02.268Z,99.99
2024-01-20T02:02:02.204Z,99.99
2024-01-20T02:03:02.321Z,99.99
2024-01-20T02:04:02.233Z,99.99
2024-01-20T02:05:02.208Z,99.99
2024-01-20T02:06:02.275Z,99.99
2024-01-20T02:07:02.189Z,99.99
2024-01-20T02:08:02.167Z,99.99
2024-01-20T02:09:02.155Z,99.99
2024-01-20T02:10:02.145Z,99.99
2024-01-20T02:11:02.099Z,99.99
2024-01-20T02:12:02.199Z,99.99
2024-01-20T02:13:02.102Z,99.99
2024-01-20T02:14:02.071Z,99.99
2024-01-20T02:15:02.137Z,99.99
2024-01-20T02:16:02.055Z,99.99
2024-01-20T02:17:02.057Z,99.99
2024-01-20T02:18:02.154Z,99.99
2024-01-20T02:19:02.110Z,99.99
2024-01-20T02:20:02.007Z,99.99
2024-01-20T02:21:02.034Z,99.99
2024-01-20T02:22:01.978Z,99.99
2024-01-20T02:23:02.005Z,99.99
2024-01-20T02:24:02.023Z,99.99
2024-01-20T02:25:01.972Z,99.99
2024-01-20T02:26:01.959Z,99.99
2024-01-20T02:27:02.018Z,99.99
2024-01-20T02:28:01.956Z,99.99
2024-01-20T02:29:01.930Z,99.99
2024-01-20T02:30:02.009Z,99.99
2024-01-20T02:31:01.910Z,99.99
2024-01-20T02:32:01.975Z,99.99
2024-01-20T02:33:01.977Z,99.99
2024-01-20T02:34:01.969Z,99.99
2024-01-20T02:35:01.869Z,99.99
2024-01-20T02:36:01.907Z,99.99
2024-01-20T02:37:01.855Z,99.99
2024-01-20T02:38:01.836Z,99.99
2024-01-20T02:39:01.840Z,99.99
2024-01-20T02:40:01.816Z,99.99
2024-01-20T02:41:01.806Z,99.99
2024-01-20T02:42:01.883Z,99.99
2024-01-20T02:43:01.767Z,99.99
2024-01-20T02:44:01.754Z,99.99
2024-01-20T02:45:01.813Z,99.99
2024-01-20T02:46:01.734Z,99.99
2024-01-20T02:47:01.727Z,99.99
2024-01-20T02:48:01.950Z,99.99
2024-01-20T02:49:01.916Z,99.99
2024-01-20T02:50:01.837Z,99.99
2024-01-20T02:51:01.694Z,99.99
2024-01-20T02:52:01.669Z,99.99
2024-01-20T02:53:01.656Z,99.99
2024-01-20T02:54:01.693Z,99.99
2024-01-20T02:55:01.687Z,99.99
2024-01-20T02:56:01.640Z,99.99
2024-01-20T02:57:01.665Z,99.99
2024-01-20T02:58:01.589Z,99.99
2024-01-20T02:59:01.605Z,99.99
2024-01-20T03:00:01.694Z,99.99
2024-01-20T03:01:01.625Z,99.99
2024-01-20T03:02:01.553Z,99.99
2024-01-20T03:03:01.766Z,99.99
2024-01-20T03:04:01.635Z,99.99
2024-01-20T03:05:01.627Z,99.99
2024-01-20T03:06:01.620Z,99.99
2024-01-20T03:07:01.522Z,99.99
2024-01-20T03:08:01.522Z,99.99
2024-01-20T03:09:01.560Z,99.99
2024-01-20T03:10:01.476Z,99.99
2024-01-20T03:11:01.487Z,99.99
2024-01-20T03:12:01.551Z,99.99
2024-01-20T03:13:01.467Z,99.99
2024-01-20T03:14:01.508Z,99.99
2024-01-20T03:15:01.611Z,99.99
2024-01-20T03:16:01.422Z,99.99
2024-01-20T03:17:01.456Z,99.99
2024-01-20T03:18:01.582Z,99.99
2024-01-20T03:19:01.417Z,99.99
2024-01-20T03:20:01.484Z,99.99
2024-01-20T03:21:01.397Z,99.99
2024-01-20T03:22:01.367Z,99.99
2024-01-20T03:23:01.369Z,99.99
2024-01-20T03:24:01.447Z,99.99
2024-01-20T03:25:01.340Z,99.99
2024-01-20T03:26:02.269Z,99.99
2024-01-20T03:27:01.419Z,99.99
2024-01-20T03:28:02.255Z,99.99
2024-01-20T03:29:01.325Z,99.99
2024-01-20T03:30:01.339Z,99.99
2024-01-20T03:31:01.332Z,99.99
2024-01-20T03:32:01.328Z,99.99
2024-01-20T03:33:01.391Z,99.99
2024-01-20T03:34:01.352Z,99.99
2024-01-20T03:35:01.254Z,99.99
2024-01-20T03:36:01.277Z,99.99
2024-01-20T03:37:01.213Z,99.99
2024-01-20T03:38:01.216Z,99.99
2024-01-20T03:39:01.234Z,99.99
2024-01-20T03:40:01.169Z,99.99
2024-01-20T03:41:01.166Z,99.99
2024-01-20T03:42:01.267Z,99.99
2024-01-20T03:43:01.142Z,99.99
2024-01-20T03:44:01.120Z,99.99
2024-01-20T03:45:01.178Z,99.99
2024-01-20T03:46:01.094Z,99.99
2024-01-20T03:47:01.106Z,99.99
2024-01-20T03:48:01.218Z,99.99
2024-01-20T03:49:02.200Z,99.99
2024-01-20T03:50:01.232Z,99.99
2024-01-20T03:51:01.175Z,99.99
2024-01-20T03:52:01.035Z,99.99
2024-01-20T03:53:01.032Z,99.99
2024-01-20T03:54:01.049Z,99.99
2024-01-20T03:55:01.032Z,99.99
2024-01-20T03:56:00.999Z,99.99
2024-01-20T03:57:01.087Z,99.99
2024-01-20T03:58:00.987Z,99.99
2024-01-20T03:59:00.975Z,99.99
2024-01-20T04:00:01.060Z,99.99
2024-01-20T04:01:01.031Z,99.99
2024-01-20T04:02:00.933Z,99.99
2024-01-20T04:03:01.008Z,99.99
2024-01-20T04:04:00.969Z,99.99
2024-01-20T04:05:01.911Z,99.99
2024-01-20T04:06:00.962Z,99.99
2024-01-20T04:07:01.021Z,99.99
2024-01-20T04:08:00.869Z,99.99
2024-01-20T04:09:00.951Z,99.99
2024-01-20T04:10:00.896Z,99.99
2024-01-20T04:11:00.861Z,99.99
2024-01-20T04:12:00.875Z,99.99
2024-01-20T04:13:00.851Z,99.99
2024-01-20T04:14:00.869Z,99.99
2024-01-20T04:15:00.907Z,99.99
2024-01-20T04:16:00.791Z,99.99
2024-01-20T04:17:00.786Z,99.99
2024-01-20T04:18:00.880Z,99.99
2024-01-20T04:19:00.942Z,99.99
2024-01-20T04:20:00.734Z,99.99
2024-01-20T04:21:00.763Z,99.99
2024-01-20T04:22:00.722Z,99.99
2024-01-20T04:23:00.743Z,99.99
2024-01-20T04:24:00.847Z,99.99
2024-01-20T04:25:00.697Z,99.99
2024-01-20T04:26:00.701Z,99.99
2024-01-20T04:27:00.778Z,99.99
2024-01-20T04:28:00.658Z,99.99
2024-01-20T04:29:00.655Z,99.99
2024-01-20T04:30:00.793Z,99.99
2024-01-20T04:31:00.643Z,99.99
2024-01-20T04:32:01.592Z,99.99
2024-01-20T04:33:00.650Z,99.99
2024-01-20T04:34:00.665Z,99.99
2024-01-20T04:35:00.611Z,99.99
2024-01-20T04:36:01.604Z,99.99
2024-01-20T04:37:00.588Z,99.99
2024-01-20T04:38:00.576Z,99.99
2024-01-20T04:39:00.586Z,99.99
2024-01-20T04:40:00.564Z,99.99
2024-01-20T04:41:00.541Z,99.99
2024-01-20T04:42:00.619Z,99.99
2024-01-20T04:43:00.517Z,99.99
2024-01-20T04:44:00.523Z,99.99
2024-01-20T04:45:00.624Z,99.99
2024-01-20T04:46:00.467Z,99.99
2024-01-20T04:47:00.475Z,99.99
2024-01-20T04:48:00.574Z,99.99
2024-01-20T04:49:01.443Z,99.99
2024-01-20T04:50:00.431Z,99.99
2024-01-20T04:51:00.468Z,99.99
2024-01-20T04:52:00.401Z,99.99
2024-01-20T04:53:00.414Z,99.99
2024-01-20T04:54:00.493Z,99.99
2024-01-20T04:55:00.376Z,99.99
2024-01-20T04:56:00.366Z,99.99
2024-01-20T04:57:00.401Z,99.99
2024-01-20T04:58:00.341Z,99.99
2024-01-20T04:59:00.339Z,99.99
2024-01-20T05:00:00.625Z,99.99
2024-01-20T05:01:01.302Z,99.99
2024-01-20T05:02:00.294Z,99.99
2024-01-20T05:03:00.373Z,99.99
2024-01-20T05:04:00.384Z,99.99
2024-01-20T05:05:01.239Z,99.99
2024-01-20T05:06:00.385Z,99.99
2024-01-20T05:07:00.368Z,99.99
2024-01-20T05:08:00.248Z,99.99
2024-01-20T05:09:00.308Z,99.99
2024-01-20T05:10:00.252Z,99.99
2024-01-20T05:11:00.196Z,99.99
2024-01-20T05:12:00.297Z,99.99
2024-01-20T05:13:00.196Z,99.99
2024-01-20T05:14:00.189Z,99.99
2024-01-20T05:15:00.278Z,99.99
2024-01-20T05:16:00.146Z,99.99
2024-01-20T05:17:00.168Z,99.99
2024-01-20T05:18:00.446Z,99.99
2024-01-20T05:19:00.337Z,99.99
2024-01-20T05:20:00.278Z,99.99
2024-01-20T05:21:00.137Z,99.99
2024-01-20T05:22:00.106Z,99.99
2024-01-20T05:23:00.080Z,99.99
2024-01-20T05:24:00.193Z,99.99
2024-01-20T05:25:00.064Z,99.99
2024-01-20T05:26:00.058Z,99.99
2024-01-20T05:27:00.065Z,99.99
2024-01-20T05:28:00.043Z,99.99
2024-01-20T05:29:00.012Z,99.99
2024-01-20T05:30:00.086Z,99.99
2024-01-20T05:30:59.989Z,99.99
2024-01-20T05:31:59.997Z,99.99
2024-01-20T05:33:00.042Z,99.99
2024-01-20T05:34:00.390Z,99.99
2024-01-20T05:34:59.977Z,99.99
2024-01-20T05:36:00.017Z,99.99
2024-01-20T05:36:59.966Z,99.99
2024-01-20T05:37:59.930Z,99.99
2024-01-20T05:38:59.930Z,99.99
2024-01-20T05:39:59.961Z,99.99
2024-01-20T05:40:59.885Z,99.99
2024-01-20T05:41:59.998Z,99.99
2024-01-20T05:42:59.872Z,99.99
2024-01-20T05:43:59.866Z,99.99
2024-01-20T05:44:59.887Z,99.99
2024-01-20T05:46:00.000Z,99.99
2024-01-20T05:46:59.856Z,99.99
2024-01-20T05:48:00.136Z,99.99
2024-01-20T05:48:59.949Z,99.99
2024-01-20T05:49:59.826Z,99.99
2024-01-20T05:50:59.839Z,99.99
2024-01-20T05:51:59.788Z,99.99
2024-01-20T05:52:59.773Z,99.99
2024-01-20T05:53:59.867Z,99.99
2024-01-20T05:54:59.742Z,99.99
2024-01-20T05:55:59.769Z,99.99
2024-01-20T05:56:59.754Z,99.99
2024-01-20T05:57:59.773Z,99.99
2024-01-20T05:58:59.704Z,99.99
2024-01-20T05:59:59.785Z,99.99
2024-01-20T06:00:59.724Z,99.99
2024-01-20T06:01:59.687Z,99.99
2024-01-20T06:03:00.659Z,99.99
2024-01-20T06:03:59.740Z,99.99
2024-01-20T06:04:59.719Z,99.99
2024-01-20T06:06:00.711Z,99.99
2024-01-20T06:06:59.630Z,99.99
2024-01-20T06:07:59.631Z,99.99
2024-01-20T06:08:59.662Z,99.99
2024-01-20T06:09:59.614Z,99.99
2024-01-20T06:10:59.602Z,99.99
2024-01-20T06:11:59.632Z,99.99
2024-01-20T06:12:59.568Z,99.99
2024-01-20T06:13:59.563Z,99.99
2024-01-20T06:14:59.621Z,99.99
2024-01-20T06:15:59.550Z,99.99
2024-01-20T06:16:59.530Z,99.99
2024-01-20T06:17:59.610Z,99.99
2024-01-20T06:18:59.550Z,99.99
2024-01-20T06:19:59.517Z,99.99
2024-01-20T06:20:59.496Z,99.99
2024-01-20T06:21:59.490Z,99.99
2024-01-20T06:22:59.490Z,99.99
2024-01-20T06:23:59.756Z,99.99
2024-01-20T06:24:59.427Z,99.99
2024-01-20T06:25:59.432Z,99.99
2024-01-20T06:26:59.468Z,99.99
2024-01-20T06:27:59.415Z,99.99
2024-01-20T06:28:59.402Z,99.99
2024-01-20T06:29:59.533Z,99.99
2024-01-20T06:30:59.393Z,99.99
2024-01-20T06:31:59.366Z,99.99
2024-01-20T06:32:59.551Z,99.99
2024-01-20T06:33:59.509Z,99.99
2024-01-20T06:34:59.376Z,99.99
2024-01-20T06:35:59.394Z,99.99
2024-01-20T06:36:59.292Z,99.99
2024-01-20T06:37:59.315Z,99.99
2024-01-20T06:38:59.319Z,99.99
2024-01-20T06:39:59.339Z,99.99
2024-01-20T06:40:59.266Z,99.99
2024-01-20T06:41:59.406Z,99.99
2024-01-20T06:42:59.263Z,99.99
2024-01-20T06:43:59.249Z,99.99
2024-01-20T06:45:01.173Z,99.99
2024-01-20T06:45:59.248Z,99.99
2024-01-20T06:46:59.205Z,99.99
2024-01-20T06:47:59.406Z,99.99
2024-01-20T06:48:59.296Z,99.99
2024-01-20T06:49:59.197Z,99.99
2024-01-20T06:50:59.176Z,99.99
2024-01-20T06:51:59.147Z,99.99
2024-01-20T06:52:59.140Z,99.99
2024-01-20T06:53:59.494Z,99.99
2024-01-20T06:54:59.126Z,99.99
2024-01-20T06:55:59.108Z,99.99
2024-01-20T06:56:59.109Z,99.99
2024-01-20T06:57:59.089Z,99.99
2024-01-20T06:58:59.065Z,99.99
2024-01-20T06:59:59.139Z,99.99
2024-01-20T07:00:59.086Z,99.99
2024-01-20T07:01:59.048Z,99.99
2024-01-20T07:02:59.100Z,99.99
2024-01-20T07:03:59.134Z,99.99
2024-01-20T07:04:59.024Z,99.99
2024-01-20T07:05:59.135Z,99.99
2024-01-20T07:06:59.024Z,99.99
2024-01-20T07:07:58.989Z,99.99
2024-01-20T07:08:58.990Z,99.99
2024-01-20T07:09:58.981Z,99.99
2024-01-20T07:10:58.951Z,99.99
2024-01-20T07:11:59.368Z,99.99
2024-01-20T07:12:58.919Z,99.99
2024-01-20T07:13:58.938Z,99.99
2024-01-20T07:14:58.945Z,99.99
2024-01-20T07:15:58.903Z,99.99
2024-01-20T07:16:58.881Z,99.99
2024-01-20T07:17:58.961Z,99.99
2024-01-20T07:18:58.919Z,99.99
2024-01-20T07:19:58.862Z,99.99
2024-01-20T07:20:58.897Z,99.99
2024-01-20T07:21:58.833Z,99.99
2024-01-20T07:22:58.814Z,99.99
2024-01-20T07:23:58.878Z,99.99
2024-01-20T07:24:58.791Z,99.99
2024-01-20T07:25:58.806Z,99.99
2024-01-20T07:26:58.811Z,99.99
2024-01-20T07:27:58.778Z,99.99
2024-01-20T07:28:59.492Z,99.99
2024-01-20T07:29:58.801Z,99.99
2024-01-20T07:30:58.736Z,99.99
2024-01-20T07:31:58.731Z,99.99
2024-01-20T07:32:58.815Z,99.99
2024-01-20T07:33:58.793Z,99.99
2024-01-20T07:34:58.779Z,99.99
2024-01-20T07:35:58.831Z,99.99
2024-01-20T07:36:58.669Z,99.99
2024-01-20T07:37:58.665Z,99.99
2024-01-20T07:38:58.782Z,99.99
2024-01-20T07:39:58.649Z,99.99
2024-01-20T07:40:58.643Z,99.99
2024-01-20T07:41:58.796Z,99.99
2024-01-20T07:42:58.635Z,99.99
2024-01-20T07:43:58.621Z,99.99
2024-01-20T07:44:58.608Z,99.99
2024-01-20T07:45:58.619Z,99.99
2024-01-20T07:46:58.616Z,99.99
2024-01-20T07:47:58.646Z,99.99
2024-01-20T07:48:58.609Z,99.99
2024-01-20T07:49:58.548Z,99.99
2024-01-20T07:50:58.553Z,99.99
2024-01-20T07:51:58.516Z,99.99
2024-01-20T07:52:58.505Z,99.99
2024-01-20T07:53:58.563Z,99.99
2024-01-20T07:54:58.502Z,99.99
2024-01-20T07:55:58.492Z,99.99
2024-01-20T07:56:58.482Z,99.99
2024-01-20T07:57:58.474Z,99.99
2024-01-20T07:58:58.453Z,99.99
2024-01-20T07:59:58.508Z,99.99
2024-01-20T08:00:58.479Z,99.99
2024-01-20T08:01:58.415Z,99.99
2024-01-20T08:02:58.488Z,99.99
2024-01-20T08:03:58.434Z,99.99
2024-01-20T08:04:58.392Z,99.99
2024-01-20T08:05:58.479Z,99.99
2024-01-20T08:06:58.774Z,99.99
2024-01-20T08:07:58.350Z,99.99
2024-01-20T08:08:58.371Z,99.99
2024-01-20T08:09:58.462Z,99.99
2024-01-20T08:10:58.325Z,99.99
2024-01-20T08:11:58.399Z,99.99
2024-01-20T08:12:58.289Z,99.99
2024-01-20T08:13:58.300Z,99.99
2024-01-20T08:14:58.307Z,99.99
2024-01-20T08:15:58.314Z,99.99
2024-01-20T08:16:58.279Z,99.99
2024-01-20T08:17:58.446Z,99.99
2024-01-20T08:18:58.403Z,99.99
2024-01-20T08:19:58.251Z,99.99
2024-01-20T08:20:59.205Z,99.99
2024-01-20T08:21:58.221Z,99.99
2024-01-20T08:22:58.187Z,99.99
2024-01-20T08:23:58.262Z,99.99
2024-01-20T08:24:58.161Z,99.99
2024-01-20T08:25:58.166Z,99.99
2024-01-20T08:26:58.137Z,99.99
2024-01-20T08:27:58.142Z,99.99
2024-01-20T08:28:58.122Z,99.99
2024-01-20T08:29:58.245Z,99.99
2024-01-20T08:30:58.292Z,99.99
2024-01-20T08:31:58.106Z,99.99
2024-01-20T08:33:01.681Z,99.99
2024-01-20T08:33:59.197Z,99.99
2024-01-20T08:34:58.067Z,99.99
2024-01-20T08:35:58.160Z,99.99
2024-01-20T08:36:58.043Z,99.99
2024-01-20T08:37:58.029Z,99.99
2024-01-20T08:38:58.049Z,99.99
2024-01-20T08:39:58.017Z,99.99
2024-01-20T08:40:59.224Z,99.99
2024-01-20T08:41:58.046Z,99.99
2024-01-20T08:42:57.975Z,99.99
2024-01-20T08:43:57.977Z,99.99
2024-01-20T08:44:58.012Z,99.99
2024-01-20T08:45:57.970Z,99.99
2024-01-20T08:46:57.966Z,99.99
2024-01-20T08:47:58.056Z,99.99
2024-01-20T08:48:57.909Z,99.99
2024-01-20T08:49:57.916Z,99.99
2024-01-20T08:50:57.927Z,99.99
2024-01-20T08:51:57.888Z,99.99
2024-01-20T08:52:57.942Z,99.99
2024-01-20T08:53:57.930Z,99.99
2024-01-20T08:54:57.843Z,99.99
2024-01-20T08:55:57.837Z,99.99
2024-01-20T08:56:57.856Z,99.99
2024-01-20T08:57:57.827Z,99.99
2024-01-20T08:58:57.808Z,99.99
2024-01-20T08:59:57.877Z,99.99
2024-01-20T09:00:57.937Z,99.99
2024-01-20T09:01:57.778Z,99.99
2024-01-20T09:02:57.866Z,99.99
2024-01-20T09:03:57.947Z,99.99
2024-01-20T09:04:57.747Z,99.99
2024-01-20T09:05:57.933Z,99.99
2024-01-20T09:06:57.766Z,99.99
2024-01-20T09:07:57.727Z,99.99
2024-01-20T09:08:58.677Z,99.99
2024-01-20T09:09:59.062Z,99.99
2024-01-20T09:10:57.687Z,99.99
2024-01-20T09:11:57.732Z,99.99
2024-01-20T09:12:57.651Z,99.99
2024-01-20T09:13:57.649Z,99.99
2024-01-20T09:14:57.697Z,99.99
2024-01-20T09:15:57.709Z,99.99
2024-01-20T09:16:57.643Z,99.99
2024-01-20T09:17:57.758Z,99.99
2024-01-20T09:18:57.680Z,99.99
2024-01-20T09:19:57.733Z,99.99
2024-01-20T09:20:57.575Z,99.99
2024-01-20T09:21:57.567Z,99.99
2024-01-20T09:22:57.539Z,99.99
2024-01-20T09:23:57.610Z,99.99
2024-01-20T09:24:57.511Z,99.99
2024-01-20T09:25:57.535Z,99.99
2024-01-20T09:26:57.559Z,99.99
2024-01-20T09:27:57.515Z,99.99
2024-01-20T09:28:57.461Z,99.99
2024-01-20T09:29:57.531Z,99.99
2024-01-20T09:30:57.470Z,99.99
2024-01-20T09:31:57.444Z,99.99
2024-01-20T09:32:57.525Z,99.99
2024-01-20T09:33:57.517Z,99.99
2024-01-20T09:34:57.433Z,99.99
2024-01-20T09:35:57.481Z,99.99
2024-01-20T09:36:57.393Z,99.99
2024-01-20T09:37:57.372Z,99.99
2024-01-20T09:38:57.401Z,99.99
2024-01-20T09:39:57.345Z,99.99
2024-01-20T09:40:57.345Z,99.99
2024-01-20T09:41:57.383Z,99.99
2024-01-20T09:42:57.343Z,99.99
2024-01-20T09:43:57.309Z,99.99
2024-01-20T09:44:57.335Z,99.99
2024-01-20T09:45:57.295Z,99.99
2024-01-20T09:46:57.279Z,99.99
2024-01-20T09:47:57.450Z,99.99
2024-01-20T09:48:57.431Z,99.99
2024-01-20T09:49:57.259Z,99.99
2024-01-20T09:50:57.273Z,99.99
2024-01-20T09:51:57.229Z,99.99
2024-01-20T09:52:57.223Z,99.99
2024-01-20T09:53:57.271Z,99.99
2024-01-20T09:54:57.190Z,99.99
2024-01-20T09:55:57.180Z,99.99
2024-01-20T09:56:57.172Z,99.99
2024-01-20T09:57:57.154Z,99.99
2024-01-20T09:58:57.172Z,99.99
2024-01-20T09:59:58.240Z,99.99
2024-01-20T10:00:57.195Z,99.99
2024-01-20T10:01:57.102Z,99.99
2024-01-20T10:02:57.120Z,99.99
2024-01-20T10:03:57.165Z,99.92
2024-01-20T10:04:57.150Z,99.99
2024-01-20T10:05:57.138Z,99.92
2024-01-20T10:06:57.064Z,99.92
2024-01-20T10:07:57.071Z,99.99
2024-01-20T10:08:57.126Z,99.99
2024-01-20T10:09:57.020Z,99.92
2024-01-20T10:10:57.052Z,99.92
2024-01-20T10:11:57.064Z,99.99
2024-01-20T10:12:56.989Z,99.99
2024-01-20T10:13:56.971Z,99.92
2024-01-20T10:14:57.017Z,99.71
2024-01-20T10:15:57.024Z,99.71
2024-01-20T10:16:56.952Z,99.77
2024-01-20T10:17:57.077Z,99.46
2024-01-20T10:18:57.038Z,99.46
2024-01-20T10:19:57.024Z,99.15
2024-01-20T10:20:56.968Z,98.58
2024-01-20T10:21:56.884Z,98.37
2024-01-20T10:22:56.890Z,98.01
2024-01-20T10:23:56.925Z,97.44
2024-01-20T10:24:56.884Z,96.71
2024-01-20T10:25:56.851Z,95.88
2024-01-20T10:26:56.888Z,95.36
2024-01-20T10:27:56.843Z,95.15
2024-01-20T10:28:56.827Z,94.94
2024-01-20T10:29:56.986Z,95.50
2024-01-20T10:30:56.849Z,95.61
2024-01-20T10:31:57.781Z,95.97
2024-01-20T10:33:08.220Z,96.38
2024-01-20T10:33:57.887Z,96.80
2024-01-20T10:34:56.937Z,96.91
2024-01-20T10:35:56.887Z,97.11
2024-01-20T10:36:56.747Z,97.11
2024-01-20T10:37:56.738Z,97.01
2024-01-20T10:38:56.792Z,96.80
2024-01-20T10:39:56.739Z,96.80
2024-01-20T10:40:56.730Z,96.80
2024-01-20T10:41:56.856Z,96.80
2024-01-20T10:42:56.694Z,96.80
2024-01-20T10:43:56.666Z,96.80
2024-01-20T10:44:56.694Z,96.80
2024-01-20T10:45:56.661Z,97.01
2024-01-20T10:46:56.646Z,96.80
2024-01-20T10:47:56.745Z,96.91
2024-01-20T10:48:56.743Z,97.05
2024-01-20T10:49:56.635Z,97.01
2024-01-20T10:50:56.755Z,96.91
2024-01-20T10:51:56.694Z,97.11
2024-01-20T10:52:56.595Z,96.70
2024-01-20T10:53:56.644Z,96.70
2024-01-20T10:54:56.568Z,96.70
2024-01-20T10:55:56.567Z,96.38
2024-01-20T10:56:56.587Z,96.49
2024-01-20T10:57:56.541Z,96.17
2024-01-20T10:58:56.543Z,95.76
2024-01-20T10:59:56.598Z,95.97
2024-01-20T11:00:56.584Z,96.07
2024-01-20T11:01:56.494Z,96.23
2024-01-20T11:02:56.512Z,96.03
2024-01-20T11:03:56.572Z,95.50
2024-01-20T11:04:56.463Z,95.29
2024-01-20T11:05:56.570Z,94.78
2024-01-20T11:06:56.511Z,94.78
2024-01-20T11:07:56.436Z,94.67
2024-01-20T11:08:56.492Z,94.31
2024-01-20T11:09:56.407Z,93.94
2024-01-20T11:10:56.425Z,94.25
2024-01-20T11:11:56.523Z,94.10
2024-01-20T11:12:56.391Z,94.21
2024-01-20T11:13:56.371Z,94.00
2024-01-20T11:14:56.501Z,93.90
2024-01-20T11:15:56.349Z,93.12
2024-01-20T11:16:56.355Z,92.60
2024-01-20T11:17:56.430Z,92.50
2024-01-20T11:18:56.376Z,92.40
2024-01-20T11:19:56.333Z,91.93
2024-01-20T11:20:56.382Z,90.75
2024-01-20T11:21:56.286Z,90.01
2024-01-20T11:22:56.308Z,89.45
2024-01-20T11:23:56.334Z,88.89
2024-01-20T11:24:56.293Z,88.27
2024-01-20T11:25:56.249Z,88.06
2024-01-20T11:26:56.250Z,87.65
2024-01-20T11:27:56.219Z,87.81
2024-01-20T11:28:56.208Z,87.15
2024-01-20T11:29:56.235Z,86.94
2024-01-20T11:30:56.217Z,85.65
2024-01-20T11:31:56.172Z,85.03
2024-01-20T11:32:56.242Z,84.41
2024-01-20T11:33:56.243Z,83.89
2024-01-20T11:34:56.173Z,83.78
2024-01-20T11:35:56.183Z,84.09
2024-01-20T11:36:56.145Z,84.09
2024-01-20T11:37:56.114Z,83.78
2024-01-20T11:38:57.057Z,83.58
2024-01-20T11:39:56.088Z,83.26
2024-01-20T11:40:56.094Z,83.30
2024-01-20T11:41:56.104Z,84.34
2024-01-20T11:42:56.071Z,84.75
2024-01-20T11:43:56.048Z,84.51
2024-01-20T11:44:56.048Z,84.61
2024-01-20T11:45:56.033Z,83.53
2024-01-20T11:46:56.032Z,83.05
2024-01-20T11:47:56.043Z,83.37
2024-01-20T11:48:56.284Z,82.74
2024-01-20T11:49:56.156Z,83.40
2024-01-20T11:50:56.021Z,84.20
2024-01-20T11:51:55.956Z,83.58
2024-01-20T11:52:55.967Z,83.26
2024-01-20T11:53:55.993Z,83.20
2024-01-20T11:54:56.899Z,83.92
2024-01-20T11:55:55.969Z,83.89
2024-01-20T11:56:55.906Z,83.84
2024-01-20T11:57:55.965Z,83.01
2024-01-20T11:58:55.891Z,82.84
2024-01-20T11:59:55.911Z,83.05
2024-01-20T12:00:56.704Z,83.09
2024-01-20T12:01:55.842Z,83.30
2024-01-20T12:02:55.976Z,83.40
2024-01-20T12:03:55.866Z,83.78
2024-01-20T12:05:01.804Z,83.61
2024-01-20T12:05:56.979Z,84.03
2024-01-20T12:06:55.857Z,84.23
2024-01-20T12:07:55.778Z,83.89
2024-01-20T12:08:55.785Z,83.61
2024-01-20T12:09:55.762Z,83.92
2024-01-20T12:10:55.760Z,84.13
2024-01-20T12:11:55.936Z,83.92
2024-01-20T12:12:55.745Z,84.13
2024-01-20T12:13:55.760Z,83.92
2024-01-20T12:14:55.717Z,84.34
2024-01-20T12:15:55.696Z,84.23
2024-01-20T12:16:55.704Z,84.34
2024-01-20T12:17:55.765Z,84.23
2024-01-20T12:18:55.752Z,84.03
2024-01-20T12:19:55.721Z,84.34
2024-01-20T12:20:55.651Z,84.23
2024-01-20T12:21:55.622Z,84.34
2024-01-20T12:22:55.636Z,84.55
2024-01-20T12:23:55.679Z,84.86
2024-01-20T12:24:55.610Z,84.03
2024-01-20T12:25:55.603Z,84.13
2024-01-20T12:26:55.607Z,84.55
2024-01-20T12:27:55.577Z,84.75
2024-01-20T12:28:55.584Z,84.96
2024-01-20T12:29:55.657Z,84.75
2024-01-20T12:30:55.571Z,84.44
2024-01-20T12:31:55.565Z,84.55
2024-01-20T12:32:55.603Z,84.96
2024-01-20T12:33:55.557Z,84.92
2024-01-20T12:34:55.528Z,84.41
2024-01-20T12:35:55.501Z,83.68
2024-01-20T12:36:55.491Z,83.58
2024-01-20T12:37:55.443Z,83.68
2024-01-20T12:38:55.473Z,83.33
2024-01-20T12:39:55.437Z,82.81
2024-01-20T12:40:55.491Z,82.77
2024-01-20T12:41:55.459Z,82.46
2024-01-20T12:42:55.415Z,82.32
2024-01-20T12:43:55.383Z,81.59
2024-01-20T12:44:55.399Z,81.28
2024-01-20T12:45:55.376Z,80.97
2024-01-20T12:46:55.381Z,80.93
2024-01-20T12:47:55.440Z,80.87
2024-01-20T12:48:55.428Z,80.83
2024-01-20T12:49:55.469Z,80.27
2024-01-20T12:50:55.341Z,80.06
2024-01-20T12:51:55.295Z,78.99